sensor_id;sensor_type;location;lat;lon;timestamp;P1;durP1;ratioP1;P2;durP2;ratioP2
45944;SDS011;31655;48.972;10.686;2023-11-22T00:01:09;6.82;;;4.55;;
45944;SDS011;31655;48.972;10.686;2023-11-22T00:03:36;6.90;;;4.80;;
45944;SDS011;31655;48.972;10.686;2023-11-22T00:06:01;9.80;;;5.18;;
45944;SDS011;31655;48.972;10.686;2023-11-22T00:08:28;7.18;;;4.20;;
45944;SDS011;31655;48.972;10.686;2023-11-22T00:10:55;8.48;;;4.65;;
45944;SDS011;31655;48.972;10.686;2023-11-22T00:13:21;5.45;;;3.95;;
45944;SDS011;31655;48.972;10.686;2023-11-22T00:15:47;6.82;;;4.80;;
45944;SDS011;31655;48.972;10.686;2023-11-22T00:18:15;7.63;;;4.68;;
45944;SDS011;31655;48.972;10.686;2023-11-22T00:20:42;9.98;;;5.82;;
45944;SDS011;31655;48.972;10.686;2023-11-22T00:23:07;5.53;;;4.22;;
45944;SDS011;31655;48.972;10.686;2023-11-22T00:25:36;7.25;;;4.28;;
45944;SDS011;31655;48.972;10.686;2023-11-22T00:28:01;10.93;;;5.63;;
45944;SDS011;31655;48.972;10.686;2023-11-22T00:30:31;10.90;;;5.82;;
45944;SDS011;31655;48.972;10.686;2023-11-22T00:32:57;8.80;;;4.63;;
45944;SDS011;31655;48.972;10.686;2023-11-22T00:35:23;9.70;;;6.07;;
45944;SDS011;31655;48.972;10.686;2023-11-22T00:37:48;9.95;;;5.65;;
45944;SDS011;31655;48.972;10.686;2023-11-22T00:40:15;7.78;;;5.18;;
45944;SDS011;31655;48.972;10.686;2023-11-22T00:42:41;9.82;;;5.15;;
45944;SDS011;31655;48.972;10.686;2023-11-22T00:45:09;8.70;;;5.38;;
45944;SDS011;31655;48.972;10.686;2023-11-22T00:47:35;6.82;;;5.13;;
45944;SDS011;31655;48.972;10.686;2023-11-22T00:50:01;8.10;;;5.07;;
45944;SDS011;31655;48.972;10.686;2023-11-22T00:52:31;8.25;;;4.90;;
45944;SDS011;31655;48.972;10.686;2023-11-22T00:54:57;9.27;;;4.80;;
45944;SDS011;31655;48.972;10.686;2023-11-22T00:57:23;6.82;;;4.57;;
45944;SDS011;31655;48.972;10.686;2023-11-22T00:59:49;8.90;;;5.30;;
45944;SDS011;31655;48.972;10.686;2023-11-22T01:02:15;7.95;;;5.65;;
45944;SDS011;31655;48.972;10.686;2023-11-22T01:04:41;11.70;;;6.20;;
45944;SDS011;31655;48.972;10.686;2023-11-22T01:07:06;9.40;;;5.72;;
45944;SDS011;31655;48.972;10.686;2023-11-22T01:09:33;8.68;;;5.65;;
45944;SDS011;31655;48.972;10.686;2023-11-22T01:11:59;10.68;;;5.53;;
45944;SDS011;31655;48.972;10.686;2023-11-22T01:14:26;12.57;;;6.57;;
45944;SDS011;31655;48.972;10.686;2023-11-22T01:16:53;10.73;;;6.55;;
45944;SDS011;31655;48.972;10.686;2023-11-22T01:19:19;9.75;;;5.97;;
45944;SDS011;31655;48.972;10.686;2023-11-22T01:21:45;11.23;;;6.55;;
45944;SDS011;31655;48.972;10.686;2023-11-22T01:24:12;10.80;;;5.90;;
45944;SDS011;31655;48.972;10.686;2023-11-22T01:26:38;15.45;;;7.10;;
45944;SDS011;31655;48.972;10.686;2023-11-22T01:29:04;9.60;;;5.82;;
45944;SDS011;31655;48.972;10.686;2023-11-22T01:31:30;12.43;;;6.50;;
45944;SDS011;31655;48.972;10.686;2023-11-22T01:33:57;10.18;;;5.68;;
45944;SDS011;31655;48.972;10.686;2023-11-22T01:36:23;14.13;;;6.35;;
45944;SDS011;31655;48.972;10.686;2023-11-22T01:38:50;13.00;;;7.10;;
45944;SDS011;31655;48.972;10.686;2023-11-22T01:41:17;9.75;;;6.28;;
45944;SDS011;31655;48.972;10.686;2023-11-22T01:43:43;11.18;;;6.88;;
45944;SDS011;31655;48.972;10.686;2023-11-22T01:46:27;14.30;;;7.28;;
45944;SDS011;31655;48.972;10.686;2023-11-22T01:48:53;14.60;;;8.30;;
45944;SDS011;31655;48.972;10.686;2023-11-22T01:51:20;16.05;;;8.32;;
45944;SDS011;31655;48.972;10.686;2023-11-22T01:53:47;17.92;;;9.23;;
45944;SDS011;31655;48.972;10.686;2023-11-22T01:56:14;17.52;;;9.18;;
45944;SDS011;31655;48.972;10.686;2023-11-22T01:58:42;16.63;;;9.23;;
45944;SDS011;31655;48.972;10.686;2023-11-22T02:01:08;18.75;;;10.32;;
45944;SDS011;31655;48.972;10.686;2023-11-22T02:03:36;16.13;;;8.88;;
45944;SDS011;31655;48.972;10.686;2023-11-22T02:06:02;16.83;;;9.60;;
45944;SDS011;31655;48.972;10.686;2023-11-22T02:08:30;20.35;;;9.63;;
45944;SDS011;31655;48.972;10.686;2023-11-22T02:10:59;16.48;;;9.70;;
45944;SDS011;31655;48.972;10.686;2023-11-22T02:13:28;16.20;;;9.23;;
45944;SDS011;31655;48.972;10.686;2023-11-22T02:15:54;18.15;;;9.20;;
45944;SDS011;31655;48.972;10.686;2023-11-22T02:18:21;16.85;;;9.48;;
45944;SDS011;31655;48.972;10.686;2023-11-22T02:20:48;13.18;;;8.95;;
45944;SDS011;31655;48.972;10.686;2023-11-22T02:23:14;16.42;;;9.23;;
45944;SDS011;31655;48.972;10.686;2023-11-22T02:25:40;17.25;;;9.30;;
45944;SDS011;31655;48.972;10.686;2023-11-22T02:28:06;16.25;;;9.68;;
45944;SDS011;31655;48.972;10.686;2023-11-22T02:30:33;13.82;;;8.88;;
45944;SDS011;31655;48.972;10.686;2023-11-22T02:32:59;13.40;;;8.15;;
45944;SDS011;31655;48.972;10.686;2023-11-22T02:35:26;18.48;;;9.70;;
45944;SDS011;31655;48.972;10.686;2023-11-22T02:37:52;18.25;;;10.98;;
45944;SDS011;31655;48.972;10.686;2023-11-22T02:40:21;22.52;;;10.48;;
45944;SDS011;31655;48.972;10.686;2023-11-22T02:42:48;17.00;;;10.20;;
45944;SDS011;31655;48.972;10.686;2023-11-22T02:45:18;19.27;;;10.85;;
45944;SDS011;31655;48.972;10.686;2023-11-22T02:47:45;16.13;;;10.50;;
45944;SDS011;31655;48.972;10.686;2023-11-22T02:50:11;17.40;;;10.23;;
45944;SDS011;31655;48.972;10.686;2023-11-22T02:52:37;16.70;;;9.93;;
45944;SDS011;31655;48.972;10.686;2023-11-22T02:55:04;19.00;;;11.10;;
45944;SDS011;31655;48.972;10.686;2023-11-22T02:57:32;15.55;;;10.02;;
45944;SDS011;31655;48.972;10.686;2023-11-22T02:59:58;12.82;;;8.68;;
45944;SDS011;31655;48.972;10.686;2023-11-22T03:02:24;17.42;;;9.05;;
45944;SDS011;31655;48.972;10.686;2023-11-22T03:04:50;14.45;;;8.98;;
45944;SDS011;31655;48.972;10.686;2023-11-22T03:07:16;13.82;;;8.65;;
45944;SDS011;31655;48.972;10.686;2023-11-22T03:09:42;14.88;;;8.30;;
45944;SDS011;31655;48.972;10.686;2023-11-22T03:12:10;12.52;;;7.53;;
45944;SDS011;31655;48.972;10.686;2023-11-22T03:14:38;13.93;;;7.95;;
45944;SDS011;31655;48.972;10.686;2023-11-22T03:17:03;11.45;;;7.15;;
45944;SDS011;31655;48.972;10.686;2023-11-22T03:19:29;12.40;;;7.60;;
45944;SDS011;31655;48.972;10.686;2023-11-22T03:21:57;14.10;;;7.82;;
45944;SDS011;31655;48.972;10.686;2023-11-22T03:24:23;12.32;;;7.20;;
45944;SDS011;31655;48.972;10.686;2023-11-22T03:26:50;13.07;;;7.88;;
45944;SDS011;31655;48.972;10.686;2023-11-22T03:29:15;14.35;;;7.00;;
45944;SDS011;31655;48.972;10.686;2023-11-22T03:31:43;10.82;;;6.85;;
45944;SDS011;31655;48.972;10.686;2023-11-22T03:34:09;10.75;;;6.90;;
45944;SDS011;31655;48.972;10.686;2023-11-22T03:36:35;11.68;;;6.60;;
45944;SDS011;31655;48.972;10.686;2023-11-22T03:39:01;13.18;;;8.43;;
45944;SDS011;31655;48.972;10.686;2023-11-22T03:41:27;10.45;;;5.97;;
45944;SDS011;31655;48.972;10.686;2023-11-22T03:43:53;10.70;;;6.10;;
45944;SDS011;31655;48.972;10.686;2023-11-22T03:46:19;11.60;;;6.82;;
45944;SDS011;31655;48.972;10.686;2023-11-22T03:48:45;12.30;;;6.93;;
45944;SDS011;31655;48.972;10.686;2023-11-22T03:51:12;11.05;;;6.85;;
45944;SDS011;31655;48.972;10.686;2023-11-22T03:53:38;13.02;;;7.38;;
45944;SDS011;31655;48.972;10.686;2023-11-22T03:56:04;13.15;;;7.32;;
45944;SDS011;31655;48.972;10.686;2023-11-22T03:58:29;15.27;;;7.82;;
45944;SDS011;31655;48.972;10.686;2023-11-22T04:00:55;12.82;;;7.78;;
45944;SDS011;31655;48.972;10.686;2023-11-22T04:03:21;11.85;;;7.72;;
45944;SDS011;31655;48.972;10.686;2023-11-22T04:05:49;11.65;;;7.47;;
45944;SDS011;31655;48.972;10.686;2023-11-22T04:08:14;12.77;;;7.03;;
45944;SDS011;31655;48.972;10.686;2023-11-22T04:10:40;13.93;;;7.72;;
45944;SDS011;31655;48.972;10.686;2023-11-22T04:13:06;14.43;;;8.32;;
45944;SDS011;31655;48.972;10.686;2023-11-22T04:15:31;13.60;;;7.88;;
45944;SDS011;31655;48.972;10.686;2023-11-22T04:17:57;12.73;;;7.65;;
45944;SDS011;31655;48.972;10.686;2023-11-22T04:20:22;14.93;;;8.00;;
45944;SDS011;31655;48.972;10.686;2023-11-22T04:22:48;12.73;;;7.90;;
45944;SDS011;31655;48.972;10.686;2023-11-22T04:25:14;12.60;;;8.05;;
45944;SDS011;31655;48.972;10.686;2023-11-22T04:27:40;13.88;;;8.10;;
45944;SDS011;31655;48.972;10.686;2023-11-22T04:30:07;12.23;;;7.20;;
45944;SDS011;31655;48.972;10.686;2023-11-22T04:32:38;15.55;;;8.18;;
45944;SDS011;31655;48.972;10.686;2023-11-22T04:35:03;13.18;;;8.35;;
45944;SDS011;31655;48.972;10.686;2023-11-22T04:37:29;12.43;;;6.57;;
45944;SDS011;31655;48.972;10.686;2023-11-22T04:39:58;12.85;;;7.55;;
45944;SDS011;31655;48.972;10.686;2023-11-22T04:42:26;14.10;;;7.47;;
45944;SDS011;31655;48.972;10.686;2023-11-22T04:44:55;13.45;;;7.72;;
45944;SDS011;31655;48.972;10.686;2023-11-22T04:47:21;14.18;;;8.48;;
45944;SDS011;31655;48.972;10.686;2023-11-22T04:49:47;16.70;;;8.82;;
45944;SDS011;31655;48.972;10.686;2023-11-22T04:52:13;13.65;;;7.75;;
45944;SDS011;31655;48.972;10.686;2023-11-22T04:54:39;15.57;;;8.25;;
45944;SDS011;31655;48.972;10.686;2023-11-22T04:57:05;12.88;;;6.80;;
45944;SDS011;31655;48.972;10.686;2023-11-22T04:59:31;9.23;;;6.53;;
45944;SDS011;31655;48.972;10.686;2023-11-22T05:01:57;16.08;;;8.95;;
45944;SDS011;31655;48.972;10.686;2023-11-22T05:04:23;14.02;;;7.57;;
45944;SDS011;31655;48.972;10.686;2023-11-22T05:06:49;14.48;;;8.70;;
45944;SDS011;31655;48.972;10.686;2023-11-22T05:09:14;12.73;;;7.57;;
45944;SDS011;31655;48.972;10.686;2023-11-22T05:11:42;17.30;;;8.32;;
45944;SDS011;31655;48.972;10.686;2023-11-22T05:14:09;14.05;;;8.57;;
45944;SDS011;31655;48.972;10.686;2023-11-22T05:16:35;13.80;;;7.28;;
45944;SDS011;31655;48.972;10.686;2023-11-22T05:19:01;12.13;;;7.43;;
45944;SDS011;31655;48.972;10.686;2023-11-22T05:21:27;12.80;;;6.78;;
45944;SDS011;31655;48.972;10.686;2023-11-22T05:23:54;9.93;;;5.72;;
45944;SDS011;31655;48.972;10.686;2023-11-22T05:26:21;10.60;;;6.25;;
45944;SDS011;31655;48.972;10.686;2023-11-22T05:28:48;8.98;;;5.20;;
45944;SDS011;31655;48.972;10.686;2023-11-22T05:31:38;18.45;;;8.07;;
45944;SDS011;31655;48.972;10.686;2023-11-22T05:35:02;8.30;;;4.55;;
45944;SDS011;31655;48.972;10.686;2023-11-22T05:37:31;6.68;;;4.57;;
45944;SDS011;31655;48.972;10.686;2023-11-22T05:39:57;6.00;;;4.40;;
45944;SDS011;31655;48.972;10.686;2023-11-22T05:42:24;8.95;;;4.85;;
45944;SDS011;31655;48.972;10.686;2023-11-22T05:44:51;8.52;;;5.28;;
45944;SDS011;31655;48.972;10.686;2023-11-22T05:47:17;10.68;;;5.63;;
45944;SDS011;31655;48.972;10.686;2023-11-22T05:49:46;10.00;;;5.40;;
45944;SDS011;31655;48.972;10.686;2023-11-22T05:52:12;8.27;;;5.15;;
45944;SDS011;31655;48.972;10.686;2023-11-22T05:54:38;11.27;;;5.47;;
45944;SDS011;31655;48.972;10.686;2023-11-22T05:57:04;9.93;;;5.55;;
45944;SDS011;31655;48.972;10.686;2023-11-22T05:59:30;9.93;;;6.43;;
45944;SDS011;31655;48.972;10.686;2023-11-22T06:01:55;7.78;;;4.75;;
45944;SDS011;31655;48.972;10.686;2023-11-22T06:04:21;10.60;;;6.47;;
45944;SDS011;31655;48.972;10.686;2023-11-22T06:06:47;8.48;;;5.57;;
45944;SDS011;31655;48.972;10.686;2023-11-22T06:09:13;8.75;;;5.53;;
45944;SDS011;31655;48.972;10.686;2023-11-22T06:11:40;9.40;;;5.82;;
45944;SDS011;31655;48.972;10.686;2023-11-22T06:14:05;9.15;;;5.85;;
45944;SDS011;31655;48.972;10.686;2023-11-22T06:16:31;6.50;;;4.40;;
45944;SDS011;31655;48.972;10.686;2023-11-22T06:18:58;9.20;;;4.97;;
45944;SDS011;31655;48.972;10.686;2023-11-22T06:21:26;9.13;;;5.50;;
45944;SDS011;31655;48.972;10.686;2023-11-22T06:23:52;8.45;;;5.35;;
45944;SDS011;31655;48.972;10.686;2023-11-22T06:26:20;6.35;;;4.60;;
45944;SDS011;31655;48.972;10.686;2023-11-22T06:28:46;7.40;;;4.35;;
45944;SDS011;31655;48.972;10.686;2023-11-22T06:31:14;8.50;;;5.13;;
45944;SDS011;31655;48.972;10.686;2023-11-22T06:33:40;8.30;;;4.97;;
45944;SDS011;31655;48.972;10.686;2023-11-22T06:36:05;9.65;;;4.95;;
45944;SDS011;31655;48.972;10.686;2023-11-22T06:38:31;8.32;;;5.18;;
45944;SDS011;31655;48.972;10.686;2023-11-22T06:40:57;7.80;;;5.65;;
45944;SDS011;31655;48.972;10.686;2023-11-22T06:43:23;8.35;;;5.85;;
45944;SDS011;31655;48.972;10.686;2023-11-22T06:45:48;10.27;;;5.80;;
45944;SDS011;31655;48.972;10.686;2023-11-22T06:48:15;10.48;;;6.07;;
45944;SDS011;31655;48.972;10.686;2023-11-22T06:50:43;12.43;;;6.57;;
45944;SDS011;31655;48.972;10.686;2023-11-22T06:53:10;10.88;;;6.05;;
45944;SDS011;31655;48.972;10.686;2023-11-22T06:55:36;16.98;;;9.45;;
45944;SDS011;31655;48.972;10.686;2023-11-22T06:58:03;15.25;;;7.82;;
45944;SDS011;31655;48.972;10.686;2023-11-22T07:00:31;14.60;;;7.55;;
45944;SDS011;31655;48.972;10.686;2023-11-22T07:02:57;12.70;;;7.97;;
45944;SDS011;31655;48.972;10.686;2023-11-22T07:05:23;12.18;;;7.90;;
45944;SDS011;31655;48.972;10.686;2023-11-22T07:07:49;16.90;;;8.45;;
45944;SDS011;31655;48.972;10.686;2023-11-22T07:10:15;12.02;;;7.35;;
45944;SDS011;31655;48.972;10.686;2023-11-22T07:12:41;14.07;;;8.18;;
45944;SDS011;31655;48.972;10.686;2023-11-22T07:15:08;12.70;;;7.97;;
45944;SDS011;31655;48.972;10.686;2023-11-22T07:17:34;13.57;;;6.95;;
45944;SDS011;31655;48.972;10.686;2023-11-22T07:20:01;14.30;;;7.68;;
45944;SDS011;31655;48.972;10.686;2023-11-22T07:22:27;12.23;;;7.10;;
45944;SDS011;31655;48.972;10.686;2023-11-22T07:24:55;23.42;;;12.52;;
45944;SDS011;31655;48.972;10.686;2023-11-22T07:27:28;17.17;;;10.50;;
45944;SDS011;31655;48.972;10.686;2023-11-22T07:29:53;12.55;;;8.65;;
45944;SDS011;31655;48.972;10.686;2023-11-22T07:32:19;11.10;;;8.02;;
45944;SDS011;31655;48.972;10.686;2023-11-22T07:34:45;11.10;;;7.32;;
45944;SDS011;31655;48.972;10.686;2023-11-22T07:37:12;16.27;;;8.35;;
45944;SDS011;31655;48.972;10.686;2023-11-22T07:39:39;13.02;;;8.13;;
45944;SDS011;31655;48.972;10.686;2023-11-22T07:42:08;11.25;;;7.75;;
45944;SDS011;31655;48.972;10.686;2023-11-22T07:44:34;13.90;;;8.10;;
45944;SDS011;31655;48.972;10.686;2023-11-22T07:47:02;11.93;;;8.18;;
45944;SDS011;31655;48.972;10.686;2023-11-22T07:49:33;13.95;;;7.50;;
45944;SDS011;31655;48.972;10.686;2023-11-22T07:52:04;10.80;;;6.93;;
45944;SDS011;31655;48.972;10.686;2023-11-22T07:57:04;15.07;;;6.70;;
45944;SDS011;31655;48.972;10.686;2023-11-22T07:59:30;12.38;;;5.78;;
45944;SDS011;31655;48.972;10.686;2023-11-22T08:01:56;10.75;;;5.50;;
45944;SDS011;31655;48.972;10.686;2023-11-22T08:04:22;9.50;;;5.95;;
45944;SDS011;31655;48.972;10.686;2023-11-22T08:06:50;11.57;;;5.80;;
45944;SDS011;31655;48.972;10.686;2023-11-22T08:09:17;9.02;;;6.07;;
45944;SDS011;31655;48.972;10.686;2023-11-22T08:11:46;14.77;;;7.80;;
45944;SDS011;31655;48.972;10.686;2023-11-22T08:14:12;15.43;;;8.70;;
45944;SDS011;31655;48.972;10.686;2023-11-22T08:16:39;14.30;;;8.85;;
45944;SDS011;31655;48.972;10.686;2023-11-22T08:19:07;15.20;;;9.57;;
45944;SDS011;31655;48.972;10.686;2023-11-22T08:21:33;14.95;;;8.57;;
45944;SDS011;31655;48.972;10.686;2023-11-22T08:23:59;16.98;;;8.32;;
45944;SDS011;31655;48.972;10.686;2023-11-22T08:26:26;15.82;;;9.30;;
45944;SDS011;31655;48.972;10.686;2023-11-22T08:28:53;15.10;;;8.88;;
45944;SDS011;31655;48.972;10.686;2023-11-22T08:31:20;14.80;;;7.97;;
45944;SDS011;31655;48.972;10.686;2023-11-22T08:33:46;16.52;;;8.50;;
45944;SDS011;31655;48.972;10.686;2023-11-22T08:36:12;15.32;;;7.88;;
45944;SDS011;31655;48.972;10.686;2023-11-22T08:38:44;16.15;;;10.35;;
45944;SDS011;31655;48.972;10.686;2023-11-22T08:41:10;13.10;;;8.38;;
45944;SDS011;31655;48.972;10.686;2023-11-22T08:43:39;16.40;;;8.02;;
45944;SDS011;31655;48.972;10.686;2023-11-22T08:46:05;13.43;;;7.70;;
45944;SDS011;31655;48.972;10.686;2023-11-22T08:48:32;13.10;;;7.68;;
45944;SDS011;31655;48.972;10.686;2023-11-22T08:50:58;13.65;;;8.88;;
45944;SDS011;31655;48.972;10.686;2023-11-22T08:53:24;18.15;;;9.55;;
45944;SDS011;31655;48.972;10.686;2023-11-22T08:55:50;14.32;;;8.10;;
45944;SDS011;31655;48.972;10.686;2023-11-22T08:58:15;12.63;;;7.18;;
45944;SDS011;31655;48.972;10.686;2023-11-22T09:00:42;12.90;;;6.78;;
45944;SDS011;31655;48.972;10.686;2023-11-22T09:03:10;10.65;;;7.10;;
45944;SDS011;31655;48.972;10.686;2023-11-22T09:05:38;11.30;;;6.57;;
45944;SDS011;31655;48.972;10.686;2023-11-22T09:08:04;11.40;;;6.15;;
45944;SDS011;31655;48.972;10.686;2023-11-22T09:10:30;15.10;;;8.88;;
45944;SDS011;31655;48.972;10.686;2023-11-22T09:12:56;16.65;;;7.35;;
45944;SDS011;31655;48.972;10.686;2023-11-22T09:15:24;9.20;;;5.55;;
45944;SDS011;31655;48.972;10.686;2023-11-22T09:17:54;9.32;;;5.70;;
45944;SDS011;31655;48.972;10.686;2023-11-22T09:20:21;10.88;;;6.80;;
45944;SDS011;31655;48.972;10.686;2023-11-22T09:22:47;12.15;;;7.10;;
45944;SDS011;31655;48.972;10.686;2023-11-22T09:25:15;10.35;;;6.50;;
45944;SDS011;31655;48.972;10.686;2023-11-22T09:27:45;12.40;;;6.03;;
45944;SDS011;31655;48.972;10.686;2023-11-22T09:30:12;11.75;;;6.70;;
45944;SDS011;31655;48.972;10.686;2023-11-22T09:32:45;9.90;;;7.05;;
45944;SDS011;31655;48.972;10.686;2023-11-22T09:35:11;10.90;;;6.28;;
45944;SDS011;31655;48.972;10.686;2023-11-22T09:37:39;15.77;;;8.13;;
45944;SDS011;31655;48.972;10.686;2023-11-22T09:40:07;12.18;;;7.47;;
45944;SDS011;31655;48.972;10.686;2023-11-22T09:42:34;12.30;;;7.25;;
45944;SDS011;31655;48.972;10.686;2023-11-22T09:45:00;12.90;;;7.15;;
45944;SDS011;31655;48.972;10.686;2023-11-22T09:47:27;13.30;;;7.93;;
45944;SDS011;31655;48.972;10.686;2023-11-22T09:49:55;14.32;;;7.97;;
45944;SDS011;31655;48.972;10.686;2023-11-22T09:52:29;15.00;;;8.30;;
45944;SDS011;31655;48.972;10.686;2023-11-22T09:54:58;13.30;;;7.35;;
45944;SDS011;31655;48.972;10.686;2023-11-22T09:57:24;14.45;;;8.00;;
45944;SDS011;31655;48.972;10.686;2023-11-22T09:59:50;13.57;;;7.93;;
45944;SDS011;31655;48.972;10.686;2023-11-22T10:02:20;13.70;;;8.20;;
45944;SDS011;31655;48.972;10.686;2023-11-22T10:04:51;13.38;;;7.70;;
45944;SDS011;31655;48.972;10.686;2023-11-22T10:07:17;12.93;;;8.75;;
45944;SDS011;31655;48.972;10.686;2023-11-22T10:09:43;14.02;;;8.52;;
45944;SDS011;31655;48.972;10.686;2023-11-22T10:12:11;12.65;;;7.32;;
45944;SDS011;31655;48.972;10.686;2023-11-22T10:14:37;13.75;;;7.18;;
45944;SDS011;31655;48.972;10.686;2023-11-22T10:17:05;12.38;;;7.30;;
45944;SDS011;31655;48.972;10.686;2023-11-22T10:19:31;13.50;;;8.20;;
45944;SDS011;31655;48.972;10.686;2023-11-22T10:22:03;10.93;;;6.60;;
45944;SDS011;31655;48.972;10.686;2023-11-22T10:24:30;14.23;;;7.88;;
45944;SDS011;31655;48.972;10.686;2023-11-22T10:27:00;13.63;;;6.90;;
45944;SDS011;31655;48.972;10.686;2023-11-22T10:29:26;17.05;;;9.55;;
45944;SDS011;31655;48.972;10.686;2023-11-22T10:31:52;13.55;;;7.70;;
45944;SDS011;31655;48.972;10.686;2023-11-22T10:34:21;12.40;;;6.90;;
45944;SDS011;31655;48.972;10.686;2023-11-22T10:36:48;10.38;;;6.70;;
45944;SDS011;31655;48.972;10.686;2023-11-22T10:39:18;10.88;;;6.18;;
45944;SDS011;31655;48.972;10.686;2023-11-22T10:41:47;10.88;;;6.78;;
45944;SDS011;31655;48.972;10.686;2023-11-22T10:44:15;10.15;;;6.20;;
45944;SDS011;31655;48.972;10.686;2023-11-22T10:46:41;27.13;;;12.05;;
45944;SDS011;31655;48.972;10.686;2023-11-22T10:49:07;9.75;;;6.50;;
45944;SDS011;31655;48.972;10.686;2023-11-22T10:51:33;10.88;;;6.75;;
45944;SDS011;31655;48.972;10.686;2023-11-22T10:54:02;10.00;;;6.30;;
45944;SDS011;31655;48.972;10.686;2023-11-22T10:56:28;10.82;;;5.43;;
45944;SDS011;31655;48.972;10.686;2023-11-22T10:59:02;13.23;;;6.30;;
45944;SDS011;31655;48.972;10.686;2023-11-22T11:01:35;9.45;;;5.72;;
45944;SDS011;31655;48.972;10.686;2023-11-22T11:04:08;10.73;;;5.72;;
45944;SDS011;31655;48.972;10.686;2023-11-22T11:06:36;8.02;;;5.72;;
45944;SDS011;31655;48.972;10.686;2023-11-22T11:09:05;17.52;;;8.75;;
45944;SDS011;31655;48.972;10.686;2023-11-22T11:11:34;34.15;;;12.00;;
45944;SDS011;31655;48.972;10.686;2023-11-22T11:14:00;17.63;;;7.75;;
45944;SDS011;31655;48.972;10.686;2023-11-22T11:16:28;24.27;;;9.65;;
45944;SDS011;31655;48.972;10.686;2023-11-22T11:19:04;10.27;;;5.68;;
45944;SDS011;31655;48.972;10.686;2023-11-22T11:21:33;11.40;;;5.95;;
45944;SDS011;31655;48.972;10.686;2023-11-22T11:23:59;9.40;;;5.28;;
45944;SDS011;31655;48.972;10.686;2023-11-22T11:26:28;11.95;;;5.53;;
45944;SDS011;31655;48.972;10.686;2023-11-22T11:28:54;14.32;;;6.40;;
45944;SDS011;31655;48.972;10.686;2023-11-22T11:31:20;6.95;;;3.85;;
45944;SDS011;31655;48.972;10.686;2023-11-22T11:39:07;8.93;;;5.18;;
45944;SDS011;31655;48.972;10.686;2023-11-22T11:41:40;43.10;;;15.45;;
45944;SDS011;31655;48.972;10.686;2023-11-22T11:44:09;51.83;;;18.75;;
45944;SDS011;31655;48.972;10.686;2023-11-22T11:46:39;28.80;;;12.70;;
45944;SDS011;31655;48.972;10.686;2023-11-22T11:49:08;14.48;;;7.78;;
45944;SDS011;31655;48.972;10.686;2023-11-22T11:51:38;7.78;;;4.85;;
45944;SDS011;31655;48.972;10.686;2023-11-22T11:54:05;14.05;;;7.57;;
45944;SDS011;31655;48.972;10.686;2023-11-22T11:56:31;10.77;;;5.70;;
45944;SDS011;31655;48.972;10.686;2023-11-22T11:58:58;19.55;;;7.55;;
45944;SDS011;31655;48.972;10.686;2023-11-22T12:01:24;5.93;;;4.68;;
45944;SDS011;31655;48.972;10.686;2023-11-22T12:03:54;11.15;;;5.57;;
45944;SDS011;31655;48.972;10.686;2023-11-22T12:06:20;9.90;;;5.47;;
45944;SDS011;31655;48.972;10.686;2023-11-22T12:08:46;15.93;;;7.07;;
45944;SDS011;31655;48.972;10.686;2023-11-22T12:11:12;8.85;;;5.28;;
45944;SDS011;31655;48.972;10.686;2023-11-22T12:13:41;9.65;;;6.07;;
45944;SDS011;31655;48.972;10.686;2023-11-22T12:16:15;9.52;;;5.45;;
45944;SDS011;31655;48.972;10.686;2023-11-22T12:18:42;8.60;;;5.43;;
45944;SDS011;31655;48.972;10.686;2023-11-22T12:21:09;8.43;;;5.28;;
45944;SDS011;31655;48.972;10.686;2023-11-22T12:23:38;15.65;;;8.48;;
45944;SDS011;31655;48.972;10.686;2023-11-22T12:26:09;14.70;;;8.48;;
45944;SDS011;31655;48.972;10.686;2023-11-22T12:28:39;12.25;;;5.72;;
45944;SDS011;31655;48.972;10.686;2023-11-22T12:33:35;11.13;;;6.03;;
45944;SDS011;31655;48.972;10.686;2023-11-22T12:36:02;8.45;;;5.15;;
45944;SDS011;31655;48.972;10.686;2023-11-22T12:38:29;9.63;;;5.88;;
45944;SDS011;31655;48.972;10.686;2023-11-22T12:40:58;11.10;;;6.55;;
45944;SDS011;31655;48.972;10.686;2023-11-22T12:43:24;10.20;;;6.35;;
45944;SDS011;31655;48.972;10.686;2023-11-22T12:46:03;9.20;;;5.95;;
45944;SDS011;31655;48.972;10.686;2023-11-22T12:48:31;8.35;;;6.05;;
45944;SDS011;31655;48.972;10.686;2023-11-22T12:50:58;13.05;;;7.10;;
45944;SDS011;31655;48.972;10.686;2023-11-22T12:53:24;7.05;;;5.07;;
45944;SDS011;31655;48.972;10.686;2023-11-22T12:55:52;9.13;;;5.60;;
45944;SDS011;31655;48.972;10.686;2023-11-22T12:58:20;10.15;;;6.07;;
45944;SDS011;31655;48.972;10.686;2023-11-22T13:00:49;9.10;;;5.70;;
45944;SDS011;31655;48.972;10.686;2023-11-22T13:03:15;6.03;;;4.43;;
45944;SDS011;31655;48.972;10.686;2023-11-22T13:05:42;11.82;;;6.97;;
45944;SDS011;31655;48.972;10.686;2023-11-22T13:08:09;16.67;;;9.45;;
45944;SDS011;31655;48.972;10.686;2023-11-22T13:10:38;17.20;;;9.88;;
45944;SDS011;31655;48.972;10.686;2023-11-22T13:13:11;20.10;;;10.77;;
45944;SDS011;31655;48.972;10.686;2023-11-22T13:15:37;22.98;;;12.00;;
45944;SDS011;31655;48.972;10.686;2023-11-22T13:18:05;24.73;;;12.57;;
45944;SDS011;31655;48.972;10.686;2023-11-22T13:20:31;20.05;;;12.73;;
45944;SDS011;31655;48.972;10.686;2023-11-22T13:22:57;24.73;;;13.02;;
45944;SDS011;31655;48.972;10.686;2023-11-22T13:25:26;23.10;;;12.98;;
45944;SDS011;31655;48.972;10.686;2023-11-22T13:27:51;26.15;;;13.27;;
45944;SDS011;31655;48.972;10.686;2023-11-22T13:30:18;25.98;;;12.27;;
45944;SDS011;31655;48.972;10.686;2023-11-22T13:32:45;25.90;;;13.90;;
45944;SDS011;31655;48.972;10.686;2023-11-22T13:35:12;27.92;;;14.43;;
45944;SDS011;31655;48.972;10.686;2023-11-22T13:37:42;27.35;;;14.35;;
45944;SDS011;31655;48.972;10.686;2023-11-22T13:40:10;26.23;;;14.35;;
45944;SDS011;31655;48.972;10.686;2023-11-22T13:45:24;31.83;;;15.82;;
45944;SDS011;31655;48.972;10.686;2023-11-22T13:47:50;28.98;;;14.57;;
45944;SDS011;31655;48.972;10.686;2023-11-22T13:50:20;30.73;;;15.25;;
45944;SDS011;31655;48.972;10.686;2023-11-22T13:52:51;30.65;;;15.90;;
45944;SDS011;31655;48.972;10.686;2023-11-22T13:55:18;33.35;;;17.15;;
45944;SDS011;31655;48.972;10.686;2023-11-22T14:00:39;28.25;;;14.23;;
45944;SDS011;31655;48.972;10.686;2023-11-22T14:03:04;27.23;;;15.68;;
45944;SDS011;31655;48.972;10.686;2023-11-22T14:05:31;28.45;;;14.25;;
45944;SDS011;31655;48.972;10.686;2023-11-22T14:08:00;23.42;;;13.40;;
45944;SDS011;31655;48.972;10.686;2023-11-22T14:10:26;24.33;;;13.27;;
45944;SDS011;31655;48.972;10.686;2023-11-22T14:12:53;29.67;;;14.38;;
45944;SDS011;31655;48.972;10.686;2023-11-22T14:15:25;29.63;;;16.40;;
45944;SDS011;31655;48.972;10.686;2023-11-22T14:17:53;26.25;;;13.85;;
45944;SDS011;31655;48.972;10.686;2023-11-22T14:20:20;29.52;;;15.75;;
45944;SDS011;31655;48.972;10.686;2023-11-22T14:22:46;25.38;;;14.82;;
45944;SDS011;31655;48.972;10.686;2023-11-22T14:25:11;24.20;;;13.52;;
45944;SDS011;31655;48.972;10.686;2023-11-22T14:27:40;23.45;;;13.70;;
45944;SDS011;31655;48.972;10.686;2023-11-22T14:30:07;26.35;;;12.68;;
45944;SDS011;31655;48.972;10.686;2023-11-22T14:32:34;25.25;;;12.93;;
45944;SDS011;31655;48.972;10.686;2023-11-22T14:35:04;28.15;;;15.35;;
45944;SDS011;31655;48.972;10.686;2023-11-22T14:37:30;24.85;;;13.32;;
45944;SDS011;31655;48.972;10.686;2023-11-22T14:39:56;28.27;;;15.23;;